sensor_id;sensor_type;location;lat;lon;timestamp;P1;durP1;ratioP1;P2;durP2;ratioP2
65636;SDS011;52327;42.622;23.316;2023-05-07T00:02:07;4.93;;;2.47;;
65636;SDS011;52327;42.622;23.316;2023-05-07T00:04:33;2.45;;;1.73;;
65636;SDS011;52327;42.622;23.316;2023-05-07T00:07:02;4.32;;;2.50;;
65636;SDS011;52327;42.622;23.316;2023-05-07T00:09:28;4.35;;;2.17;;
65636;SDS011;52327;42.622;23.316;2023-05-07T00:11:53;3.25;;;2.08;;
65636;SDS011;52327;42.622;23.316;2023-05-07T00:14:19;2.90;;;2.03;;
65636;SDS011;52327;42.622;23.316;2023-05-07T00:16:45;3.63;;;2.50;;
65636;SDS011;52327;42.622;23.316;2023-05-07T00:19:11;3.58;;;2.40;;
65636;SDS011;52327;42.622;23.316;2023-05-07T00:21:37;4.25;;;2.50;;
65636;SDS011;52327;42.622;23.316;2023-05-07T00:24:09;3.00;;;2.20;;
65636;SDS011;52327;42.622;23.316;2023-05-07T00:26:46;2.28;;;1.70;;
65636;SDS011;52327;42.622;23.316;2023-05-07T00:29:12;6.03;;;2.20;;
65636;SDS011;52327;42.622;23.316;2023-05-07T00:31:37;4.22;;;2.75;;
65636;SDS011;52327;42.622;23.316;2023-05-07T00:34:16;6.72;;;3.08;;
65636;SDS011;52327;42.622;23.316;2023-05-07T00:36:42;4.28;;;2.95;;
65636;SDS011;52327;42.622;23.316;2023-05-07T00:39:10;6.45;;;3.50;;
65636;SDS011;52327;42.622;23.316;2023-05-07T00:41:38;4.20;;;2.45;;
65636;SDS011;52327;42.622;23.316;2023-05-07T00:44:04;4.28;;;2.45;;
65636;SDS011;52327;42.622;23.316;2023-05-07T00:46:29;4.88;;;2.60;;
65636;SDS011;52327;42.622;23.316;2023-05-07T00:49:03;9.40;;;3.45;;
65636;SDS011;52327;42.622;23.316;2023-05-07T00:51:30;4.53;;;2.40;;
65636;SDS011;52327;42.622;23.316;2023-05-07T00:54:02;3.42;;;2.33;;
65636;SDS011;52327;42.622;23.316;2023-05-07T00:56:28;5.03;;;3.10;;
65636;SDS011;52327;42.622;23.316;2023-05-07T00:58:54;4.57;;;2.38;;
65636;SDS011;52327;42.622;23.316;2023-05-07T01:01:20;3.47;;;1.77;;
65636;SDS011;52327;42.622;23.316;2023-05-07T01:03:46;3.70;;;2.65;;
65636;SDS011;52327;42.622;23.316;2023-05-07T01:06:11;4.97;;;2.95;;
65636;SDS011;52327;42.622;23.316;2023-05-07T01:11:07;3.55;;;2.17;;
65636;SDS011;52327;42.622;23.316;2023-05-07T01:13:37;3.72;;;2.80;;
65636;SDS011;52327;42.622;23.316;2023-05-07T01:16:03;5.45;;;3.67;;
65636;SDS011;52327;42.622;23.316;2023-05-07T01:18:29;5.63;;;3.20;;
65636;SDS011;52327;42.622;23.316;2023-05-07T01:20:55;4.57;;;3.10;;
65636;SDS011;52327;42.622;23.316;2023-05-07T01:23:23;4.50;;;2.70;;
65636;SDS011;52327;42.622;23.316;2023-05-07T01:25:51;6.18;;;3.78;;
65636;SDS011;52327;42.622;23.316;2023-05-07T01:28:19;4.53;;;2.53;;
65636;SDS011;52327;42.622;23.316;2023-05-07T01:30:51;3.67;;;1.95;;
65636;SDS011;52327;42.622;23.316;2023-05-07T01:33:20;4.45;;;3.03;;
65636;SDS011;52327;42.622;23.316;2023-05-07T01:35:48;3.95;;;2.88;;
65636;SDS011;52327;42.622;23.316;2023-05-07T01:38:16;4.82;;;2.55;;
65636;SDS011;52327;42.622;23.316;2023-05-07T01:40:49;4.95;;;2.90;;
65636;SDS011;52327;42.622;23.316;2023-05-07T01:43:15;5.03;;;3.05;;
65636;SDS011;52327;42.622;23.316;2023-05-07T01:45:44;4.30;;;2.55;;
65636;SDS011;52327;42.622;23.316;2023-05-07T01:48:10;4.93;;;2.88;;
65636;SDS011;52327;42.622;23.316;2023-05-07T01:50:37;4.13;;;2.80;;
65636;SDS011;52327;42.622;23.316;2023-05-07T01:53:04;7.45;;;2.92;;
65636;SDS011;52327;42.622;23.316;2023-05-07T01:55:35;4.85;;;2.78;;
65636;SDS011;52327;42.622;23.316;2023-05-07T01:58:04;5.22;;;2.58;;
65636;SDS011;52327;42.622;23.316;2023-05-07T02:00:30;4.28;;;2.60;;
65636;SDS011;52327;42.622;23.316;2023-05-07T02:02:56;6.20;;;3.05;;
65636;SDS011;52327;42.622;23.316;2023-05-07T02:05:28;6.43;;;3.03;;
65636;SDS011;52327;42.622;23.316;2023-05-07T02:07:56;3.60;;;2.63;;
65636;SDS011;52327;42.622;23.316;2023-05-07T02:10:24;3.95;;;2.45;;
65636;SDS011;52327;42.622;23.316;2023-05-07T02:12:49;5.72;;;3.47;;
65636;SDS011;52327;42.622;23.316;2023-05-07T02:15:17;3.60;;;2.25;;
65636;SDS011;52327;42.622;23.316;2023-05-07T02:18:02;5.80;;;2.53;;
65636;SDS011;52327;42.622;23.316;2023-05-07T02:20:29;5.10;;;3.08;;
65636;SDS011;52327;42.622;23.316;2023-05-07T02:22:55;3.70;;;2.65;;
65636;SDS011;52327;42.622;23.316;2023-05-07T02:25:20;5.03;;;3.13;;
65636;SDS011;52327;42.622;23.316;2023-05-07T02:27:46;3.92;;;2.67;;
65636;SDS011;52327;42.622;23.316;2023-05-07T02:30:11;4.13;;;2.80;;
65636;SDS011;52327;42.622;23.316;2023-05-07T02:32:37;5.13;;;2.70;;
65636;SDS011;52327;42.622;23.316;2023-05-07T02:35:03;4.82;;;2.47;;
65636;SDS011;52327;42.622;23.316;2023-05-07T02:37:28;6.65;;;3.10;;
65636;SDS011;52327;42.622;23.316;2023-05-07T02:39:54;4.30;;;3.25;;
65636;SDS011;52327;42.622;23.316;2023-05-07T02:42:20;5.90;;;3.50;;
65636;SDS011;52327;42.622;23.316;2023-05-07T02:44:45;3.30;;;2.47;;
65636;SDS011;52327;42.622;23.316;2023-05-07T02:47:11;4.80;;;2.83;;
65636;SDS011;52327;42.622;23.316;2023-05-07T02:49:41;4.47;;;3.00;;
65636;SDS011;52327;42.622;23.316;2023-05-07T02:52:09;6.25;;;2.40;;
65636;SDS011;52327;42.622;23.316;2023-05-07T02:54:35;5.55;;;3.00;;
65636;SDS011;52327;42.622;23.316;2023-05-07T02:57:00;5.72;;;3.25;;
65636;SDS011;52327;42.622;23.316;2023-05-07T02:59:27;5.38;;;3.55;;
65636;SDS011;52327;42.622;23.316;2023-05-07T03:01:55;5.32;;;3.55;;
65636;SDS011;52327;42.622;23.316;2023-05-07T03:04:21;5.88;;;3.17;;
65636;SDS011;52327;42.622;23.316;2023-05-07T03:06:46;8.40;;;3.63;;
65636;SDS011;52327;42.622;23.316;2023-05-07T03:09:18;5.88;;;4.07;;
65636;SDS011;52327;42.622;23.316;2023-05-07T03:11:43;6.15;;;3.22;;
65636;SDS011;52327;42.622;23.316;2023-05-07T03:14:09;3.92;;;2.42;;
65636;SDS011;52327;42.622;23.316;2023-05-07T03:16:34;6.22;;;4.03;;
65636;SDS011;52327;42.622;23.316;2023-05-07T03:19:00;4.13;;;2.30;;
65636;SDS011;52327;42.622;23.316;2023-05-07T03:21:26;4.55;;;2.75;;
65636;SDS011;52327;42.622;23.316;2023-05-07T03:23:58;7.05;;;3.03;;
65636;SDS011;52327;42.622;23.316;2023-05-07T03:26:23;7.38;;;4.00;;
65636;SDS011;52327;42.622;23.316;2023-05-07T03:28:50;7.65;;;3.10;;
65636;SDS011;52327;42.622;23.316;2023-05-07T03:31:16;8.35;;;4.43;;
65636;SDS011;52327;42.622;23.316;2023-05-07T03:33:53;7.35;;;3.88;;
65636;SDS011;52327;42.622;23.316;2023-05-07T03:36:22;3.95;;;2.80;;
65636;SDS011;52327;42.622;23.316;2023-05-07T03:38:49;4.47;;;2.65;;
65636;SDS011;52327;42.622;23.316;2023-05-07T03:41:15;6.72;;;3.65;;
65636;SDS011;52327;42.622;23.316;2023-05-07T03:43:41;4.90;;;2.75;;
65636;SDS011;52327;42.622;23.316;2023-05-07T03:46:06;4.25;;;2.55;;
65636;SDS011;52327;42.622;23.316;2023-05-07T03:48:32;4.85;;;3.33;;
65636;SDS011;52327;42.622;23.316;2023-05-07T03:50:58;5.95;;;3.20;;
65636;SDS011;52327;42.622;23.316;2023-05-07T03:53:24;7.15;;;3.67;;
65636;SDS011;52327;42.622;23.316;2023-05-07T03:55:49;4.18;;;2.88;;
65636;SDS011;52327;42.622;23.316;2023-05-07T03:58:18;3.78;;;2.45;;
65636;SDS011;52327;42.622;23.316;2023-05-07T04:00:49;5.57;;;2.83;;
65636;SDS011;52327;42.622;23.316;2023-05-07T04:03:15;4.57;;;2.22;;
65636;SDS011;52327;42.622;23.316;2023-05-07T04:05:43;5.75;;;2.92;;
65636;SDS011;52327;42.622;23.316;2023-05-07T04:08:08;6.28;;;3.90;;
65636;SDS011;52327;42.622;23.316;2023-05-07T04:10:34;5.10;;;3.40;;
65636;SDS011;52327;42.622;23.316;2023-05-07T04:13:03;4.90;;;3.20;;
65636;SDS011;52327;42.622;23.316;2023-05-07T04:15:37;4.82;;;3.38;;
65636;SDS011;52327;42.622;23.316;2023-05-07T04:18:03;6.03;;;3.92;;
65636;SDS011;52327;42.622;23.316;2023-05-07T04:20:43;9.13;;;4.75;;
65636;SDS011;52327;42.622;23.316;2023-05-07T04:23:15;9.68;;;5.45;;
65636;SDS011;52327;42.622;23.316;2023-05-07T04:25:50;10.05;;;5.53;;
65636;SDS011;52327;42.622;23.316;2023-05-07T04:28:15;13.60;;;4.85;;
65636;SDS011;52327;42.622;23.316;2023-05-07T04:30:41;11.68;;;5.75;;
65636;SDS011;52327;42.622;23.316;2023-05-07T04:33:07;9.88;;;5.72;;
65636;SDS011;52327;42.622;23.316;2023-05-07T04:35:32;8.32;;;5.15;;
65636;SDS011;52327;42.622;23.316;2023-05-07T04:37:58;6.95;;;4.95;;
65636;SDS011;52327;42.622;23.316;2023-05-07T04:40:23;7.50;;;4.95;;
65636;SDS011;52327;42.622;23.316;2023-05-07T04:42:49;6.43;;;4.03;;
65636;SDS011;52327;42.622;23.316;2023-05-07T04:45:14;12.07;;;6.10;;
65636;SDS011;52327;42.622;23.316;2023-05-07T04:47:40;10.63;;;4.35;;
65636;SDS011;52327;42.622;23.316;2023-05-07T04:50:06;8.93;;;4.60;;
65636;SDS011;52327;42.622;23.316;2023-05-07T04:52:32;6.78;;;4.90;;
65636;SDS011;52327;42.622;23.316;2023-05-07T04:55:01;12.27;;;5.63;;
65636;SDS011;52327;42.622;23.316;2023-05-07T04:57:26;7.68;;;4.32;;
65636;SDS011;52327;42.622;23.316;2023-05-07T04:59:52;7.60;;;4.70;;
65636;SDS011;52327;42.622;23.316;2023-05-07T05:02:19;10.75;;;4.60;;
65636;SDS011;52327;42.622;23.316;2023-05-07T05:04:44;11.43;;;5.15;;
65636;SDS011;52327;42.622;23.316;2023-05-07T05:07:10;12.02;;;4.63;;
65636;SDS011;52327;42.622;23.316;2023-05-07T05:09:35;7.25;;;4.65;;
65636;SDS011;52327;42.622;23.316;2023-05-07T05:12:00;7.82;;;4.32;;
65636;SDS011;52327;42.622;23.316;2023-05-07T05:14:26;7.55;;;4.82;;
65636;SDS011;52327;42.622;23.316;2023-05-07T05:16:52;7.88;;;5.18;;
65636;SDS011;52327;42.622;23.316;2023-05-07T05:19:18;9.98;;;5.05;;
65636;SDS011;52327;42.622;23.316;2023-05-07T05:21:44;7.88;;;4.40;;
65636;SDS011;52327;42.622;23.316;2023-05-07T05:24:10;8.82;;;5.10;;
65636;SDS011;52327;42.622;23.316;2023-05-07T05:26:35;8.27;;;4.47;;
65636;SDS011;52327;42.622;23.316;2023-05-07T05:29:01;7.20;;;4.45;;
65636;SDS011;52327;42.622;23.316;2023-05-07T05:31:26;9.23;;;4.20;;
65636;SDS011;52327;42.622;23.316;2023-05-07T05:33:51;10.02;;;5.60;;
65636;SDS011;52327;42.622;23.316;2023-05-07T05:36:17;8.15;;;4.80;;
65636;SDS011;52327;42.622;23.316;2023-05-07T05:38:42;6.03;;;4.65;;
65636;SDS011;52327;42.622;23.316;2023-05-07T05:41:09;10.20;;;4.70;;
65636;SDS011;52327;42.622;23.316;2023-05-07T05:43:35;7.18;;;4.80;;
65636;SDS011;52327;42.622;23.316;2023-05-07T05:46:00;8.60;;;4.93;;
65636;SDS011;52327;42.622;23.316;2023-05-07T05:48:26;11.02;;;4.78;;
65636;SDS011;52327;42.622;23.316;2023-05-07T05:50:51;6.38;;;4.50;;
65636;SDS011;52327;42.622;23.316;2023-05-07T05:53:16;6.35;;;4.43;;
65636;SDS011;52327;42.622;23.316;2023-05-07T05:55:42;8.35;;;5.18;;
65636;SDS011;52327;42.622;23.316;2023-05-07T05:58:08;9.80;;;4.93;;
65636;SDS011;52327;42.622;23.316;2023-05-07T06:00:34;8.25;;;5.20;;
65636;SDS011;52327;42.622;23.316;2023-05-07T06:02:59;7.95;;;4.43;;
65636;SDS011;52327;42.622;23.316;2023-05-07T06:05:25;8.70;;;5.63;;
65636;SDS011;52327;42.622;23.316;2023-05-07T06:07:50;7.95;;;5.07;;
65636;SDS011;52327;42.622;23.316;2023-05-07T06:10:16;10.35;;;6.18;;
65636;SDS011;52327;42.622;23.316;2023-05-07T06:12:41;6.55;;;4.70;;
65636;SDS011;52327;42.622;23.316;2023-05-07T06:15:06;7.82;;;4.57;;
65636;SDS011;52327;42.622;23.316;2023-05-07T06:17:33;7.53;;;4.78;;
65636;SDS011;52327;42.622;23.316;2023-05-07T06:19:59;7.03;;;4.53;;
65636;SDS011;52327;42.622;23.316;2023-05-07T06:22:24;8.77;;;4.82;;
65636;SDS011;52327;42.622;23.316;2023-05-07T06:24:50;6.20;;;4.25;;
65636;SDS011;52327;42.622;23.316;2023-05-07T06:27:15;6.72;;;4.22;;
65636;SDS011;52327;42.622;23.316;2023-05-07T06:29:40;8.25;;;3.80;;
65636;SDS011;52327;42.622;23.316;2023-05-07T06:32:06;6.20;;;3.72;;
65636;SDS011;52327;42.622;23.316;2023-05-07T06:34:35;6.68;;;4.55;;
65636;SDS011;52327;42.622;23.316;2023-05-07T06:37:01;6.63;;;3.55;;
65636;SDS011;52327;42.622;23.316;2023-05-07T06:39:27;6.72;;;4.15;;
65636;SDS011;52327;42.622;23.316;2023-05-07T06:41:52;6.63;;;3.83;;
65636;SDS011;52327;42.622;23.316;2023-05-07T06:44:18;6.15;;;4.20;;
65636;SDS011;52327;42.622;23.316;2023-05-07T06:46:43;7.70;;;4.72;;
65636;SDS011;52327;42.622;23.316;2023-05-07T06:49:10;7.57;;;4.35;;
65636;SDS011;52327;42.622;23.316;2023-05-07T06:51:35;8.38;;;4.53;;
65636;SDS011;52327;42.622;23.316;2023-05-07T06:54:01;5.63;;;4.20;;
65636;SDS011;52327;42.622;23.316;2023-05-07T06:56:26;9.10;;;4.25;;
65636;SDS011;52327;42.622;23.316;2023-05-07T06:58:52;6.65;;;3.63;;
65636;SDS011;52327;42.622;23.316;2023-05-07T07:01:17;4.65;;;3.70;;
65636;SDS011;52327;42.622;23.316;2023-05-07T07:03:43;8.40;;;3.25;;
65636;SDS011;52327;42.622;23.316;2023-05-07T07:06:08;7.18;;;3.80;;
65636;SDS011;52327;42.622;23.316;2023-05-07T07:08:33;7.18;;;3.83;;
65636;SDS011;52327;42.622;23.316;2023-05-07T07:10:59;4.80;;;3.03;;
65636;SDS011;52327;42.622;23.316;2023-05-07T07:13:25;5.78;;;3.47;;
65636;SDS011;52327;42.622;23.316;2023-05-07T07:15:51;4.85;;;3.42;;
65636;SDS011;52327;42.622;23.316;2023-05-07T07:18:16;8.50;;;4.03;;
65636;SDS011;52327;42.622;23.316;2023-05-07T07:20:42;6.63;;;4.32;;
65636;SDS011;52327;42.622;23.316;2023-05-07T07:23:09;5.00;;;3.67;;
65636;SDS011;52327;42.622;23.316;2023-05-07T07:25:34;20.85;;;9.85;;
65636;SDS011;52327;42.622;23.316;2023-05-07T07:28:00;29.23;;;16.88;;
65636;SDS011;52327;42.622;23.316;2023-05-07T07:30:26;33.25;;;20.65;;
65636;SDS011;52327;42.622;23.316;2023-05-07T07:32:51;6.20;;;4.50;;
65636;SDS011;52327;42.622;23.316;2023-05-07T07:35:17;3.92;;;3.28;;
65636;SDS011;52327;42.622;23.316;2023-05-07T07:37:43;6.28;;;3.92;;
65636;SDS011;52327;42.622;23.316;2023-05-07T07:40:08;7.10;;;3.90;;
65636;SDS011;52327;42.622;23.316;2023-05-07T07:42:34;6.45;;;3.63;;
65636;SDS011;52327;42.622;23.316;2023-05-07T07:45:00;7.05;;;3.67;;
65636;SDS011;52327;42.622;23.316;2023-05-07T07:47:25;5.47;;;3.63;;
65636;SDS011;52327;42.622;23.316;2023-05-07T07:49:50;8.18;;;4.70;;
65636;SDS011;52327;42.622;23.316;2023-05-07T07:52:16;6.25;;;3.50;;
65636;SDS011;52327;42.622;23.316;2023-05-07T07:54:41;7.95;;;3.80;;
65636;SDS011;52327;42.622;23.316;2023-05-07T07:57:07;6.72;;;4.20;;
65636;SDS011;52327;42.622;23.316;2023-05-07T07:59:33;5.85;;;3.97;;
65636;SDS011;52327;42.622;23.316;2023-05-07T08:01:58;7.25;;;3.95;;
65636;SDS011;52327;42.622;23.316;2023-05-07T08:04:24;6.13;;;4.05;;
65636;SDS011;52327;42.622;23.316;2023-05-07T08:06:49;7.47;;;3.90;;
65636;SDS011;52327;42.622;23.316;2023-05-07T08:09:15;6.70;;;3.58;;
65636;SDS011;52327;42.622;23.316;2023-05-07T08:11:40;7.13;;;4.45;;
65636;SDS011;52327;42.622;23.316;2023-05-07T08:14:05;5.72;;;3.30;;
65636;SDS011;52327;42.622;23.316;2023-05-07T08:16:31;6.50;;;3.92;;
65636;SDS011;52327;42.622;23.316;2023-05-07T08:18:56;7.10;;;3.88;;
65636;SDS011;52327;42.622;23.316;2023-05-07T08:21:22;11.90;;;4.47;;
65636;SDS011;52327;42.622;23.316;2023-05-07T08:23:48;7.35;;;4.15;;
65636;SDS011;52327;42.622;23.316;2023-05-07T08:26:14;7.07;;;3.80;;
65636;SDS011;52327;42.622;23.316;2023-05-07T08:28:39;9.73;;;5.90;;
65636;SDS011;52327;42.622;23.316;2023-05-07T08:31:05;4.60;;;3.65;;
65636;SDS011;52327;42.622;23.316;2023-05-07T08:33:30;6.20;;;4.10;;
65636;SDS011;52327;42.622;23.316;2023-05-07T08:35:56;7.07;;;3.78;;
65636;SDS011;52327;42.622;23.316;2023-05-07T08:38:22;6.63;;;4.43;;
65636;SDS011;52327;42.622;23.316;2023-05-07T08:40:47;5.28;;;3.83;;
65636;SDS011;52327;42.622;23.316;2023-05-07T08:43:13;4.07;;;2.70;;
65636;SDS011;52327;42.622;23.316;2023-05-07T08:45:40;5.65;;;3.60;;
65636;SDS011;52327;42.622;23.316;2023-05-07T08:48:10;4.80;;;2.83;;
65636;SDS011;52327;42.622;23.316;2023-05-07T08:50:49;4.57;;;3.17;;
65636;SDS011;52327;42.622;23.316;2023-05-07T08:55:49;5.32;;;3.75;;
65636;SDS011;52327;42.622;23.316;2023-05-07T08:58:16;5.03;;;3.40;;
65636;SDS011;52327;42.622;23.316;2023-05-07T09:00:41;8.48;;;3.45;;
65636;SDS011;52327;42.622;23.316;2023-05-07T09:03:09;6.78;;;3.72;;
65636;SDS011;52327;42.622;23.316;2023-05-07T09:05:38;8.30;;;4.88;;
65636;SDS011;52327;42.622;23.316;2023-05-07T09:08:05;8.07;;;5.15;;
65636;SDS011;52327;42.622;23.316;2023-05-07T09:10:38;8.95;;;5.53;;
65636;SDS011;52327;42.622;23.316;2023-05-07T09:13:10;6.32;;;4.15;;
65636;SDS011;52327;42.622;23.316;2023-05-07T09:15:39;7.15;;;4.10;;
65636;SDS011;52327;42.622;23.316;2023-05-07T09:18:08;5.35;;;4.10;;
65636;SDS011;52327;42.622;23.316;2023-05-07T09:23:27;5.43;;;4.43;;
65636;SDS011;52327;42.622;23.316;2023-05-07T09:26:14;8.30;;;3.78;;
65636;SDS011;52327;42.622;23.316;2023-05-07T09:28:43;7.78;;;4.95;;
65636;SDS011;52327;42.622;23.316;2023-05-07T09:31:09;4.55;;;3.17;;
65636;SDS011;52327;42.622;23.316;2023-05-07T09:33:36;5.03;;;4.03;;
65636;SDS011;52327;42.622;23.316;2023-05-07T09:36:14;7.40;;;4.35;;
65636;SDS011;52327;42.622;23.316;2023-05-07T09:38:46;6.78;;;4.43;;
65636;SDS011;52327;42.622;23.316;2023-05-07T09:41:14;6.10;;;3.97;;
65636;SDS011;52327;42.622;23.316;2023-05-07T09:43:43;6.93;;;4.00;;
65636;SDS011;52327;42.622;23.316;2023-05-07T09:46:12;6.45;;;4.35;;
65636;SDS011;52327;42.622;23.316;2023-05-07T09:48:41;9.20;;;4.15;;
65636;SDS011;52327;42.622;23.316;2023-05-07T09:54:05;7.15;;;3.97;;
65636;SDS011;52327;42.622;23.316;2023-05-07T09:56:32;6.55;;;3.60;;
65636;SDS011;52327;42.622;23.316;2023-05-07T09:59:01;6.28;;;4.20;;
65636;SDS011;52327;42.622;23.316;2023-05-07T10:01:29;7.75;;;3.67;;
65636;SDS011;52327;42.622;23.316;2023-05-07T10:03:58;8.07;;;3.75;;
65636;SDS011;52327;42.622;23.316;2023-05-07T10:06:24;7.80;;;3.70;;
65636;SDS011;52327;42.622;23.316;2023-05-07T10:08:51;4.50;;;3.53;;
65636;SDS011;52327;42.622;23.316;2023-05-07T10:11:17;6.25;;;3.80;;
65636;SDS011;52327;42.622;23.316;2023-05-07T10:13:43;7.00;;;4.53;;
65636;SDS011;52327;42.622;23.316;2023-05-07T10:16:11;6.63;;;4.35;;
65636;SDS011;52327;42.622;23.316;2023-05-07T10:18:37;7.70;;;3.97;;
65636;SDS011;52327;42.622;23.316;2023-05-07T10:21:16;7.95;;;4.22;;
65636;SDS011;52327;42.622;23.316;2023-05-07T10:23:49;6.30;;;4.15;;
65636;SDS011;52327;42.622;23.316;2023-05-07T10:26:17;7.88;;;4.25;;
65636;SDS011;52327;42.622;23.316;2023-05-07T10:28:46;7.13;;;4.28;;
65636;SDS011;52327;42.622;23.316;2023-05-07T10:34:02;7.63;;;4.00;;
65636;SDS011;52327;42.622;23.316;2023-05-07T10:36:34;6.35;;;3.83;;
65636;SDS011;52327;42.622;23.316;2023-05-07T10:39:00;5.45;;;3.75;;
65636;SDS011;52327;42.622;23.316;2023-05-07T10:41:26;5.53;;;3.28;;
65636;SDS011;52327;42.622;23.316;2023-05-07T10:43:51;10.65;;;4.00;;
65636;SDS011;52327;42.622;23.316;2023-05-07T10:46:17;7.75;;;3.58;;
65636;SDS011;52327;42.622;23.316;2023-05-07T10:51:29;5.28;;;3.83;;
65636;SDS011;52327;42.622;23.316;2023-05-07T11:01:55;6.85;;;3.25;;
65636;SDS011;52327;42.622;23.316;2023-05-07T11:04:21;5.55;;;3.45;;
65636;SDS011;52327;42.622;23.316;2023-05-07T11:10:16;6.95;;;4.05;;
65636;SDS011;52327;42.622;23.316;2023-05-07T11:17:53;4.97;;;3.00;;
65636;SDS011;52327;42.622;23.316;2023-05-07T11:20:20;5.25;;;3.72;;
65636;SDS011;52327;42.622;23.316;2023-05-07T11:22:46;4.60;;;2.97;;
65636;SDS011;52327;42.622;23.316;2023-05-07T11:25:17;4.70;;;3.40;;
65636;SDS011;52327;42.622;23.316;2023-05-07T11:27:44;5.70;;;3.55;;
65636;SDS011;52327;42.622;23.316;2023-05-07T11:30:10;5.35;;;3.58;;
65636;SDS011;52327;42.622;23.316;2023-05-07T11:32:42;4.68;;;3.28;;
65636;SDS011;52327;42.622;23.316;2023-05-07T11:35:08;6.68;;;3.50;;
65636;SDS011;52327;42.622;23.316;2023-05-07T11:37:33;7.25;;;3.92;;
65636;SDS011;52327;42.622;23.316;2023-05-07T11:40:08;5.28;;;3.97;;
65636;SDS011;52327;42.622;23.316;2023-05-07T11:42:36;5.03;;;3.70;;
65636;SDS011;52327;42.622;23.316;2023-05-07T11:45:03;4.40;;;3.67;;
65636;SDS011;52327;42.622;23.316;2023-05-07T11:47:30;5.50;;;3.70;;
65636;SDS011;52327;42.622;23.316;2023-05-07T11:49:56;8.45;;;4.00;;
65636;SDS011;52327;42.622;23.316;2023-05-07T11:52:22;5.10;;;3.63;;
65636;SDS011;52327;42.622;23.316;2023-05-07T11:54:55;5.55;;;3.88;;
65636;SDS011;52327;42.622;23.316;2023-05-07T11:57:22;4.47;;;3.58;;
65636;SDS011;52327;42.622;23.316;2023-05-07T11:59:52;5.40;;;3.95;;
65636;SDS011;52327;42.622;23.316;2023-05-07T12:02:24;4.32;;;3.45;;
65636;SDS011;52327;42.622;23.316;2023-05-07T12:04:51;4.95;;;3.30;;
65636;SDS011;52327;42.622;23.316;2023-05-07T12:07:16;5.85;;;3.30;;
65636;SDS011;52327;42.622;23.316;2023-05-07T12:09:43;4.38;;;2.90;;
65636;SDS011;52327;42.622;23.316;2023-05-07T12:12:09;4.63;;;2.85;;
65636;SDS011;52327;42.622;23.316;2023-05-07T12:14:41;3.40;;;2.83;;
65636;SDS011;52327;42.622;23.316;2023-05-07T12:17:08;4.97;;;2.83;;
65636;SDS011;52327;42.622;23.316;2023-05-07T12:19:35;3.75;;;2.95;;
65636;SDS011;52327;42.622;23.316;2023-05-07T12:22:04;4.18;;;2.90;;
65636;SDS011;52327;42.622;23.316;2023-05-07T12:24:56;4.40;;;2.70;;
65636;SDS011;52327;42.622;23.316;2023-05-07T12:27:23;4.82;;;3.58;;
65636;SDS011;52327;42.622;23.316;2023-05-07T12:29:49;3.83;;;2.90;;
65636;SDS011;52327;42.622;23.316;2023-05-07T12:32:18;5.45;;;2.80;;
65636;SDS011;52327;42.622;23.316;2023-05-07T12:34:46;6.68;;;3.17;;
65636;SDS011;52327;42.622;23.316;2023-05-07T12:37:14;5.05;;;3.20;;
65636;SDS011;52327;42.622;23.316;2023-05-07T12:40:02;4.60;;;3.13;;
65636;SDS011;52327;42.622;23.316;2023-05-07T12:42:32;3.33;;;2.80;;
65636;SDS011;52327;42.622;23.316;2023-05-07T12:45:06;4.72;;;2.95;;
65636;SDS011;52327;42.622;23.316;2023-05-07T12:47:33;3.38;;;2.60;;
65636;SDS011;52327;42.622;23.316;2023-05-07T12:49:58;6.95;;;3.10;;
65636;SDS011;52327;42.622;23.316;2023-05-07T12:52:24;3.70;;;2.72;;
65636;SDS011;52327;42.622;23.316;2023-05-07T12:54:50;8.05;;;2.78;;
65636;SDS011;52327;42.622;23.316;2023-05-07T12:57:15;3.95;;;2.58;;
65636;SDS011;52327;42.622;23.316;2023-05-07T12:59:44;3.53;;;3.05;;
65636;SDS011;52327;42.622;23.316;2023-05-07T13:02:09;3.88;;;2.50;;
65636;SDS011;52327;42.622;23.316;2023-05-07T13:04:35;5.07;;;2.72;;
65636;SDS011;52327;42.622;23.316;2023-05-07T13:07:00;4.70;;;3.00;;
65636;SDS011;52327;42.622;23.316;2023-05-07T13:09:27;3.45;;;2.78;;
65636;SDS011;52327;42.622;23.316;2023-05-07T13:11:55;3.20;;;2.67;;
65636;SDS011;52327;42.622;23.316;2023-05-07T13:14:21;3.83;;;2.83;;
65636;SDS011;52327;42.622;23.316;2023-05-07T13:16:47;3.05;;;2.75;;
65636;SDS011;52327;42.622;23.316;2023-05-07T13:19:12;5.03;;;2.72;;
65636;SDS011;52327;42.622;23.316;2023-05-07T13:21:38;4.70;;;2.92;;
65636;SDS011;52327;42.622;23.316;2023-05-07T13:24:03;3.17;;;2.38;;
65636;SDS011;52327;42.622;23.316;2023-05-07T13:26:29;4.35;;;2.60;;
65636;SDS011;52327;42.622;23.316;2023-05-07T13:28:57;3.35;;;2.55;;
65636;SDS011;52327;42.622;23.316;2023-05-07T13:31:22;3.72;;;2.80;;
65636;SDS011;52327;42.622;23.316;2023-05-07T13:33:49;3.25;;;2.85;;
65636;SDS011;52327;42.622;23.316;2023-05-07T13:36:15;3.55;;;2.30;;
65636;SDS011;52327;42.622;23.316;2023-05-07T13:38:40;3.60;;;2.60;;
65636;SDS011;52327;42.622;23.316;2023-05-07T13:41:05;3.85;;;2.70;;
65636;SDS011;52327;42.622;23.316;2023-05-07T13:43:31;7.00;;;3.05;;
65636;SDS011;52327;42.622;23.316;2023-05-07T13:45:58;3.97;;;2.63;;
65636;SDS011;52327;42.622;23.316;2023-05-07T13:48:24;3.45;;;2.97;;
65636;SDS011;52327;42.622;23.316;2023-05-07T13:50:49;4.18;;;2.85;;
65636;SDS011;52327;42.622;23.316;2023-05-07T13:53:16;3.95;;;2.83;;
65636;SDS011;52327;42.622;23.316;2023-05-07T13:55:43;4.18;;;3.05;;
65636;SDS011;52327;42.622;23.316;2023-05-07T13:58:08;6.47;;;3.10;;
65636;SDS011;52327;42.622;23.316;2023-05-07T14:00:34;3.33;;;2.47;;
65636;SDS011;52327;42.622;23.316;2023-05-07T14:03:00;2.97;;;2.67;;
65636;SDS011;52327;42.622;23.316;2023-05-07T14:05:26;4.85;;;3.20;;
65636;SDS011;52327;42.622;23.316;2023-05-07T14:07:55;3.67;;;3.27;;
65636;SDS011;52327;42.622;23.316;2023-05-07T14:10:22;2.92;;;2.58;;
65636;SDS011;52327;42.622;23.316;2023-05-07T14:12:47;4.07;;;2.42;;
65636;SDS011;52327;42.622;23.316;2023-05-07T14:15:13;5.60;;;3.67;;
65636;SDS011;52327;42.622;23.316;2023-05-07T14:17:39;9.30;;;6.07;;
65636;SDS011;52327;42.622;23.316;2023-05-07T14:20:04;7.07;;;5.10;;
65636;SDS011;52327;42.622;23.316;2023-05-07T14:22:33;6.65;;;4.80;;
65636;SDS011;52327;42.622;23.316;2023-05-07T14:24:59;4.68;;;3.55;;
65636;SDS011;52327;42.622;23.316;2023-05-07T14:27:24;5.18;;;2.88;;
65636;SDS011;52327;42.622;23.316;2023-05-07T14:29:50;5.43;;;2.90;;
65636;SDS011;52327;42.622;23.316;2023-05-07T14:32:18;5.43;;;2.92;;
65636;SDS011;52327;42.622;23.316;2023-05-07T14:34:44;4.60;;;2.53;;
65636;SDS011;52327;42.622;23.316;2023-05-07T14:37:10;2.15;;;1.85;;
65636;SDS011;52327;42.622;23.316;2023-05-07T14:39:35;3.90;;;3.38;;
65636;SDS011;52327;42.622;23.316;2023-05-07T14:42:01;3.30;;;2.88;;
65636;SDS011;52327;42.622;23.316;2023-05-07T14:44:26;3.25;;;2.67;;
65636;SDS011;52327;42.622;23.316;2023-05-07T14:46:52;5.97;;;3.00;;
65636;SDS011;52327;42.622;23.316;2023-05-07T14:49:17;2.45;;;2.20;;
65636;SDS011;52327;42.622;23.316;2023-05-07T14:51:43;2.60;;;2.33;;
65636;SDS011;52327;42.622;23.316;2023-05-07T14:54:10;3.03;;;2.13;;
65636;SDS011;52327;42.622;23.316;2023-05-07T14:56:35;3.00;;;2.60;;
65636;SDS011;52327;42.622;23.316;2023-05-07T14:59:02;4.13;;;2.40;;
65636;SDS011;52327;42.622;23.316;2023-05-07T15:01:28;2.92;;;2.40;;
65636;SDS011;52327;42.622;23.316;2023-05-07T15:03:53;3.28;;;2.58;;
65636;SDS011;52327;42.622;23.316;2023-05-07T15:06:19;2.83;;;2.10;;